createdAt,value
2019-05-02T00:01:38.411Z,27.53
2019-05-02T00:04:06.615Z,25.17
2019-05-02T00:06:38.112Z,24.90
2019-05-02T00:09:09.261Z,22.73
2019-05-02T00:11:34.332Z,28.43
2019-05-02T00:14:01.968Z,26.20
2019-05-02T00:16:29.624Z,25.13
2019-05-02T00:18:57.287Z,27.73
2019-05-02T00:21:24.953Z,25.93
2019-05-02T00:23:52.616Z,29.17
2019-05-02T00:26:24.649Z,25.10
2019-05-02T00:28:49.915Z,25.83
2019-05-02T00:31:19.519Z,26.93
2019-05-02T00:33:47.171Z,24.27
2019-05-02T00:36:14.833Z,25.20
2019-05-02T00:38:42.521Z,25.87
2019-05-02T00:41:10.183Z,27.60
2019-05-02T00:43:38.176Z,28.03
2019-05-02T00:46:05.853Z,25.43
2019-05-02T00:48:38.375Z,24.17
2019-05-02T00:51:06.224Z,27.47
2019-05-02T00:53:33.875Z,26.77
2019-05-02T00:56:05.040Z,24.40
2019-05-02T00:58:31.896Z,26.27
2019-05-02T01:01:16.491Z,27.90
2019-05-02T01:03:47.099Z,28.10
2019-05-02T01:06:15.600Z,23.83
2019-05-02T01:08:43.463Z,28.80
2019-05-02T01:11:11.179Z,28.60
2019-05-02T01:13:38.828Z,27.63
2019-05-02T01:16:06.497Z,28.33
2019-05-02T01:18:37.206Z,25.07
2019-05-02T01:21:04.197Z,28.37
2019-05-02T01:23:31.914Z,27.43
2019-05-02T01:25:59.564Z,31.67
2019-05-02T01:28:32.508Z,27.97
2019-05-02T01:31:08.494Z,28.10
2019-05-02T01:33:43.463Z,27.47
2019-05-02T01:36:15.563Z,29.50
2019-05-02T01:38:46.493Z,30.63
2019-05-02T01:41:14.207Z,30.63
2019-05-02T01:43:41.943Z,27.27
2019-05-02T01:46:09.583Z,26.23
2019-05-02T01:48:40.073Z,29.70
2019-05-02T01:51:10.538Z,28.57
2019-05-02T01:53:36.039Z,35.13
2019-05-02T01:56:03.856Z,27.13
2019-05-02T01:58:31.509Z,26.90
2019-05-02T02:00:59.154Z,31.63
2019-05-02T02:03:27.028Z,26.57
2019-05-02T02:05:54.706Z,28.43
2019-05-02T02:08:22.453Z,27.70
2019-05-02T02:10:50.511Z,31.37
2019-05-02T02:13:19.524Z,28.47
2019-05-02T02:15:47.163Z,27.07
2019-05-02T02:18:16.208Z,30.23
2019-05-02T02:20:53.435Z,28.77
2019-05-02T02:23:36.845Z,31.67
2019-05-02T02:26:11.909Z,28.73
2019-05-02T02:28:36.616Z,29.23
2019-05-02T02:31:07.459Z,32.43
2019-05-02T02:33:33.647Z,34.43
2019-05-02T02:36:01.349Z,32.90
2019-05-02T02:38:33.725Z,30.03
2019-05-02T02:40:58.472Z,32.33
2019-05-02T02:43:34.218Z,30.20
2019-05-02T02:46:06.781Z,30.67
2019-05-02T02:48:40.671Z,33.83
2019-05-02T02:51:04.096Z,35.43
2019-05-02T02:53:32.046Z,31.03
2019-05-02T02:56:02.031Z,34.40
2019-05-02T02:58:29.102Z,34.90
2019-05-02T03:00:56.743Z,34.87
2019-05-02T03:03:27.736Z,36.13
2019-05-02T03:05:58.838Z,36.10
2019-05-02T03:08:23.338Z,34.33
2019-05-02T03:10:51.057Z,37.40
2019-05-02T03:13:52.356Z,41.57
2019-05-02T03:16:17.380Z,39.87
2019-05-02T03:18:45.037Z,38.40
2019-05-02T03:21:13.552Z,40.63
2019-05-02T03:23:42.071Z,44.83
2019-05-02T03:26:14.815Z,44.50
2019-05-02T03:28:39.073Z,41.07
2019-05-02T03:31:21.654Z,39.80
2019-05-02T03:33:51.922Z,42.97
2019-05-02T03:36:05.428Z,40.03
2019-05-02T03:38:35.215Z,46.37
2019-05-02T03:41:02.473Z,47.87
2019-05-02T03:43:30.126Z,42.23
2019-05-02T03:45:57.979Z,46.83
2019-05-02T03:48:27.802Z,44.87
2019-05-02T03:50:55.044Z,46.17
2019-05-02T03:53:24.974Z,46.30
2019-05-02T03:55:52.084Z,48.00
2019-05-02T03:58:19.894Z,49.37
2019-05-02T04:00:47.717Z,48.33
2019-05-02T04:03:15.395Z,47.63
2019-05-02T04:05:43.056Z,52.30
2019-05-02T04:08:19.765Z,50.23
2019-05-02T04:10:40.130Z,43.93
2019-05-02T04:13:07.899Z,50.20
2019-05-02T04:15:37.543Z,45.60
2019-05-02T04:18:08.369Z,51.00
2019-05-02T04:20:34.337Z,47.77
2019-05-02T04:23:02.233Z,51.30
2019-05-02T04:25:34.041Z,47.93
2019-05-02T04:27:59.319Z,48.67
2019-05-02T04:30:26.975Z,44.63
2019-05-02T04:32:55.809Z,53.40
2019-05-02T04:35:28.791Z,53.67
2019-05-02T04:37:53.243Z,47.43
2019-05-02T04:40:20.919Z,45.27
2019-05-02T04:42:53.515Z,46.90
2019-05-02T04:45:28.173Z,44.60
2019-05-02T04:47:54.540Z,47.53
2019-05-02T04:50:18.459Z,45.83
2019-05-02T04:52:52.488Z,45.40
2019-05-02T04:55:26.068Z,45.87
2019-05-02T04:57:50.430Z,48.50
2019-05-02T05:00:14.474Z,46.07
2019-05-02T05:02:42.189Z,49.63
2019-05-02T05:05:09.964Z,47.80
2019-05-02T05:07:40.966Z,48.07
2019-05-02T05:10:08.392Z,48.60
2019-05-02T05:12:40.086Z,47.00
2019-05-02T05:15:07.824Z,45.73
2019-05-02T05:17:35.080Z,46.73
2019-05-02T05:20:10.696Z,49.33
2019-05-02T05:22:36.601Z,46.40
2019-05-02T05:25:07.460Z,45.10
2019-05-02T05:27:35.309Z,50.23
2019-05-02T05:30:09.351Z,52.67
2019-05-02T05:32:32.344Z,45.23
2019-05-02T05:35:03.332Z,47.83
2019-05-02T05:37:29.575Z,46.10
2019-05-02T05:39:58.044Z,43.70
2019-05-02T05:42:30.172Z,50.47
2019-05-02T05:44:55.267Z,41.83
2019-05-02T05:47:22.903Z,41.70
2019-05-02T05:49:52.422Z,45.03
2019-05-02T05:52:19.995Z,38.43
2019-05-02T05:54:47.710Z,43.73
2019-05-02T05:57:17.462Z,43.63
2019-05-02T05:59:44.932Z,41.33
2019-05-02T06:02:14.586Z,40.70
2019-05-02T06:04:41.956Z,45.40
2019-05-02T06:07:09.699Z,46.00
2019-05-02T06:09:37.349Z,44.83
2019-05-02T06:12:05.001Z,49.50
2019-05-02T06:14:34.421Z,48.83
2019-05-02T06:17:02.172Z,44.97
2019-05-02T06:19:29.907Z,47.03
2019-05-02T06:21:57.556Z,45.70
2019-05-02T06:24:25.528Z,45.03
2019-05-02T06:26:53.247Z,49.90
2019-05-02T06:29:21.099Z,48.87
2019-05-02T06:31:48.862Z,48.07
2019-05-02T06:34:16.513Z,48.20
2019-05-02T06:36:44.174Z,49.07
2019-05-02T06:39:11.823Z,52.93
2019-05-02T06:41:39.537Z,50.00
2019-05-02T06:44:10.107Z,48.10
2019-05-02T06:46:36.604Z,54.30
2019-05-02T06:49:04.270Z,50.70
2019-05-02T06:51:31.944Z,50.00
2019-05-02T06:53:59.635Z,47.17
2019-05-02T06:56:27.292Z,48.63
2019-05-02T06:58:54.974Z,48.27
2019-05-02T07:01:22.938Z,54.60
2019-05-02T07:03:50.757Z,53.20
2019-05-02T07:06:18.724Z,52.60
2019-05-02T07:08:46.767Z,54.83
2019-05-02T07:11:14.524Z,53.13
2019-05-02T07:13:43.810Z,54.10
2019-05-02T07:16:38.415Z,50.50
2019-05-02T07:19:10.727Z,52.00
2019-05-02T07:21:38.394Z,56.03
2019-05-02T07:24:06.084Z,53.50
2019-05-02T07:26:33.748Z,54.50
2019-05-02T07:29:01.396Z,54.13
2019-05-02T07:31:29.176Z,55.73
2019-05-02T07:33:56.830Z,54.13
2019-05-02T07:36:24.508Z,54.13
2019-05-02T07:38:52.296Z,50.37
2019-05-02T07:41:24.136Z,49.10
2019-05-02T07:43:52.144Z,53.33
2019-05-02T07:46:21.031Z,50.50
2019-05-02T07:48:48.953Z,49.87
2019-05-02T07:51:21.310Z,51.13
2019-05-02T07:53:48.554Z,52.00
2019-05-02T07:56:17.772Z,51.80
2019-05-02T07:58:47.955Z,54.30
2019-05-02T08:01:15.314Z,55.07
2019-05-02T08:03:43.216Z,58.30
2019-05-02T08:06:11.077Z,56.10
2019-05-02T08:08:38.772Z,52.13
2019-05-02T08:11:06.433Z,58.27
2019-05-02T08:13:34.087Z,53.40
2019-05-02T08:18:30.391Z,50.67
2019-05-02T08:20:57.432Z,50.93
2019-05-02T08:23:25.770Z,54.60
2019-05-02T08:25:54.599Z,56.43
2019-05-02T08:28:27.883Z,47.57
2019-05-02T08:30:57.295Z,54.17
2019-05-02T08:33:29.124Z,49.17
2019-05-02T08:35:54.319Z,48.80
2019-05-02T08:38:21.976Z,48.43
2019-05-02T08:40:49.753Z,47.13
2019-05-02T08:43:17.611Z,46.10
2019-05-02T08:45:45.268Z,47.17
2019-05-02T08:48:12.921Z,44.90
2019-05-02T08:50:40.595Z,44.43
2019-05-02T08:53:08.319Z,44.07
2019-05-02T08:55:36.293Z,43.50
2019-05-02T08:58:06.751Z,40.07
2019-05-02T09:00:37.582Z,43.30
2019-05-02T09:03:04.612Z,44.60
2019-05-02T09:05:36.356Z,43.33
2019-05-02T09:08:01.656Z,46.23
2019-05-02T09:10:29.459Z,45.47
2019-05-02T09:12:57.116Z,47.97
2019-05-02T09:15:24.784Z,47.60
2019-05-02T09:17:56.287Z,41.90
2019-05-02T09:20:23.700Z,40.37
2019-05-02T09:22:55.695Z,44.37
2019-05-02T09:25:21.979Z,40.53
2019-05-02T09:27:49.820Z,50.37
2019-05-02T09:30:22.857Z,42.87
2019-05-02T09:32:46.904Z,41.97
2019-05-02T09:35:14.628Z,42.90
2019-05-02T09:37:42.374Z,40.90
2019-05-02T09:40:15.004Z,35.73
2019-05-02T09:42:39.562Z,38.03
2019-05-02T09:45:09.099Z,39.40
2019-05-02T09:47:52.799Z,39.43
2019-05-02T09:50:09.933Z,44.03
2019-05-02T09:52:39.530Z,37.97
2019-05-02T09:55:07.224Z,36.77
2019-05-02T09:57:34.911Z,37.87
2019-05-02T10:00:02.914Z,38.83
2019-05-02T10:02:32.440Z,32.83
2019-05-02T10:05:01.686Z,32.40
2019-05-02T10:07:29.740Z,37.40
2019-05-02T10:09:57.616Z,31.07
2019-05-02T10:12:26.862Z,34.47
2019-05-02T10:14:54.538Z,32.77
2019-05-02T10:17:23.115Z,34.80
2019-05-02T10:19:54.969Z,34.97
2019-05-02T10:22:20.367Z,35.07
2019-05-02T10:24:48.148Z,35.83
2019-05-02T10:27:15.810Z,32.43
2019-05-02T10:29:43.472Z,33.70
2019-05-02T10:32:15.024Z,35.93
2019-05-02T10:34:42.236Z,33.75
2019-05-02T10:37:12.240Z,36.30
2019-05-02T10:39:39.416Z,35.07
2019-05-02T10:42:07.073Z,34.40
2019-05-02T10:44:36.542Z,37.50
2019-05-02T10:47:04.328Z,35.63
2019-05-02T10:49:42.964Z,32.10
2019-05-02T10:52:12.252Z,36.40
2019-05-02T10:54:42.034Z,37.17
2019-05-02T10:57:09.740Z,33.47
2019-05-02T10:59:37.403Z,31.82
2019-05-02T11:02:16.623Z,34.37
2019-05-02T11:04:48.356Z,34.60
2019-05-02T11:07:17.159Z,34.50
2019-05-02T11:09:45.734Z,31.53
2019-05-02T11:12:21.131Z,30.33
2019-05-02T11:14:51.815Z,34.93
2019-05-02T11:17:26.657Z,34.37
2019-05-02T11:19:57.915Z,31.20
2019-05-02T11:22:25.576Z,31.03
2019-05-02T11:24:53.238Z,33.57
2019-05-02T11:27:22.124Z,30.63
2019-05-02T11:29:49.936Z,29.30
2019-05-02T11:32:17.612Z,30.87
2019-05-02T11:34:45.571Z,36.33
2019-05-02T11:37:13.570Z,32.67
2019-05-02T11:39:46.197Z,31.50
2019-05-02T11:42:12.375Z,28.98
2019-05-02T11:47:05.997Z,31.37
2019-05-02T11:49:33.711Z,28.80
2019-05-02T11:52:04.330Z,29.47
2019-05-02T11:54:31.987Z,29.57
2019-05-02T11:59:28.099Z,28.50
2019-05-02T12:04:32.473Z,23.47
2019-05-02T12:07:01.482Z,24.27
2019-05-02T12:09:29.585Z,28.00
2019-05-02T12:11:57.235Z,23.03
2019-05-02T12:14:27.505Z,22.37
2019-05-02T12:16:54.845Z,23.53
2019-05-02T12:21:48.437Z,25.30
2019-05-02T12:24:16.123Z,23.43
2019-05-02T12:29:09.808Z,25.87
2019-05-02T12:31:37.490Z,25.33
2019-05-02T12:36:33.126Z,26.03
2019-05-02T12:39:02.412Z,26.53
2019-05-02T12:41:30.001Z,20.87
2019-05-02T12:43:57.791Z,19.37
2019-05-02T12:48:52.136Z,19.87
2019-05-02T12:51:19.999Z,23.63
2019-05-02T12:56:13.602Z,20.47
2019-05-02T13:01:07.210Z,25.33
2019-05-02T13:06:07.337Z,22.23
2019-05-02T13:08:38.041Z,25.40
2019-05-02T13:11:14.301Z,22.60
2019-05-02T13:13:42.101Z,22.47
2019-05-02T13:16:12.040Z,23.63
2019-05-02T13:18:39.337Z,23.77
2019-05-02T13:23:44.784Z,25.23
2019-05-02T13:28:38.384Z,19.90
2019-05-02T13:33:39.844Z,24.13
2019-05-02T13:38:33.517Z,21.07
2019-05-02T13:41:02.599Z,22.70
2019-05-02T13:43:36.018Z,23.23
2019-05-02T13:48:35.618Z,20.90
2019-05-02T13:51:03.930Z,24.77
2019-05-02T13:58:47.572Z,17.17
2019-05-02T14:06:08.073Z,18.70
2019-05-02T14:11:17.312Z,20.23
2019-05-02T14:16:12.175Z,20.87
2019-05-02T14:18:42.013Z,22.13
2019-05-02T14:23:35.272Z,19.33
2019-05-02T14:26:03.256Z,21.97
2019-05-02T14:28:32.336Z,19.90
2019-05-02T14:31:02.139Z,21.43
2019-05-02T14:35:55.644Z,20.57
2019-05-02T14:38:23.300Z,20.20
2019-05-02T14:46:02.950Z,20.23
2019-05-02T14:48:34.504Z,19.27
2019-05-02T14:51:01.782Z,18.60
2019-05-02T14:53:29.594Z,14.70
2019-05-02T14:58:23.201Z,15.47
2019-05-02T15:00:52.888Z,14.90
2019-05-02T15:03:24.581Z,13.80
2019-05-02T15:05:50.225Z,12.93
2019-05-02T15:08:17.883Z,10.03
2019-05-02T15:10:52.385Z,13.47
2019-05-02T15:13:14.923Z,11.60
2019-05-02T15:15:43.484Z,13.97
2019-05-02T15:18:13.403Z,11.87
2019-05-02T15:20:42.386Z,11.23
2019-05-02T15:23:14.425Z,13.57
2019-05-02T15:25:39.738Z,11.83
2019-05-02T15:28:09.727Z,14.27
2019-05-02T15:30:44.838Z,17.98
2019-05-02T15:33:12.543Z,16.80
2019-05-02T15:36:03.183Z,17.53
2019-05-02T15:38:29.045Z,14.63
2019-05-02T15:40:59.286Z,15.23
2019-05-02T15:43:26.067Z,18.07
2019-05-02T15:45:53.745Z,19.17
2019-05-02T15:48:27.283Z,15.53
2019-05-02T15:50:52.988Z,15.60
2019-05-02T15:53:28.228Z,15.07
2019-05-02T15:55:55.901Z,17.43
2019-05-02T15:58:27.690Z,17.70
2019-05-02T16:01:05.735Z,16.70
2019-05-02T16:03:43.053Z,19.33
2019-05-02T16:06:08.237Z,16.40
2019-05-02T16:08:37.608Z,16.67
2019-05-02T16:11:08.822Z,18.73
2019-05-02T16:13:34.774Z,16.57
2019-05-02T16:16:05.459Z,14.87
2019-05-02T16:18:31.960Z,15.77
2019-05-02T16:21:07.995Z,14.47
2019-05-02T16:23:35.931Z,15.20
2019-05-02T16:26:05.862Z,16.20
2019-05-02T16:28:36.856Z,13.93
2019-05-02T16:31:04.739Z,15.13
2019-05-02T16:33:32.520Z,16.50
2019-05-02T16:36:00.290Z,14.13
2019-05-02T16:38:33.683Z,14.57
2019-05-02T16:40:57.364Z,16.73
2019-05-02T16:43:26.683Z,15.63
2019-05-02T16:45:54.431Z,14.37
2019-05-02T16:48:23.831Z,14.33
2019-05-02T16:50:51.860Z,17.53
2019-05-02T16:53:22.556Z,14.30
2019-05-02T16:55:49.109Z,13.83
2019-05-02T16:58:16.773Z,15.50
2019-05-02T17:00:45.586Z,13.80
2019-05-02T17:03:17.446Z,13.03
2019-05-02T17:05:44.289Z,11.73
2019-05-02T17:08:26.101Z,14.53
2019-05-02T17:10:57.220Z,15.87
2019-05-02T17:13:27.306Z,17.60
2019-05-02T17:15:54.274Z,18.57
2019-05-02T17:18:22.856Z,16.37
2019-05-02T17:20:53.519Z,16.83
2019-05-02T17:23:22.143Z,18.52
2019-05-02T17:25:49.497Z,16.63
2019-05-02T17:28:17.152Z,16.13
2019-05-02T17:30:44.813Z,16.77
2019-05-02T17:33:16.072Z,16.50
2019-05-02T17:35:49.347Z,11.37
2019-05-02T17:38:11.997Z,16.00
2019-05-02T17:40:41.991Z,15.93
2019-05-02T17:43:09.315Z,16.20
2019-05-02T17:45:38.479Z,17.30
2019-05-02T17:48:08.426Z,17.90
2019-05-02T17:50:49.514Z,17.23
2019-05-02T17:53:16.263Z,13.57
2019-05-02T17:55:44.402Z,19.63
2019-05-02T17:58:13.943Z,19.20
2019-05-02T18:00:47.524Z,16.20
2019-05-02T18:03:15.528Z,17.63
2019-05-02T18:05:43.463Z,16.57
2019-05-02T18:08:14.611Z,15.73
2019-05-02T18:10:41.918Z,17.67
2019-05-02T18:13:09.704Z,20.00
2019-05-02T18:15:37.359Z,16.10
2019-05-02T18:18:06.891Z,18.00
2019-05-02T18:20:37.113Z,17.10
2019-05-02T18:23:05.956Z,16.47
2019-05-02T18:25:33.156Z,17.47
2019-05-02T18:28:02.417Z,18.00
2019-05-02T18:30:30.184Z,15.50
2019-05-02T18:33:02.516Z,15.63
2019-05-02T18:35:27.211Z,17.47
2019-05-02T18:37:54.864Z,14.00
2019-05-02T18:40:27.861Z,17.00
2019-05-02T18:42:52.020Z,17.17
2019-05-02T18:45:19.738Z,13.73
2019-05-02T18:47:47.396Z,13.77
2019-05-02T18:50:15.051Z,16.77
2019-05-02T18:52:43.174Z,16.03
2019-05-02T18:55:12.073Z,16.63
2019-05-02T18:57:39.723Z,15.10
2019-05-02T19:00:07.731Z,15.23
2019-05-02T19:02:35.730Z,16.57
2019-05-02T19:05:06.027Z,16.27
2019-05-02T19:07:35.714Z,14.73
2019-05-02T19:10:05.762Z,14.67
2019-05-02T19:12:32.764Z,14.93
2019-05-02T19:15:03.144Z,16.63
2019-05-02T19:17:30.111Z,19.03
2019-05-02T19:19:57.848Z,14.07
2019-05-02T19:22:25.518Z,16.40
2019-05-02T19:24:53.204Z,16.07
2019-05-02T19:27:40.003Z,15.13
2019-05-02T19:30:08.554Z,15.10
2019-05-02T19:32:36.245Z,15.57
2019-05-02T19:35:06.913Z,14.47
2019-05-02T19:37:36.240Z,19.70
2019-05-02T19:40:02.712Z,15.30
2019-05-02T19:42:30.763Z,15.30
2019-05-02T19:45:03.741Z,14.20
2019-05-02T19:47:27.784Z,14.20
2019-05-02T19:49:55.462Z,14.57
2019-05-02T19:52:23.120Z,16.73
2019-05-02T19:54:51.895Z,17.83
2019-05-02T19:57:24.859Z,15.07
2019-05-02T19:59:49.062Z,14.97
2019-05-02T20:02:16.728Z,15.63
2019-05-02T20:04:44.432Z,15.27
2019-05-02T20:07:12.435Z,16.63
2019-05-02T20:09:43.620Z,17.00
2019-05-02T20:12:13.414Z,18.33
2019-05-02T20:14:43.608Z,19.30
2019-05-02T20:17:08.340Z,18.97
2019-05-02T20:19:38.614Z,15.40
2019-05-02T20:22:11.803Z,18.60
2019-05-02T20:24:49.169Z,17.83
2019-05-02T20:27:14.422Z,17.80
2019-05-02T20:29:42.629Z,20.07
2019-05-02T20:32:12.538Z,18.50
2019-05-02T20:34:41.756Z,18.63
2019-05-02T20:37:09.175Z,17.90
2019-05-02T20:39:36.837Z,16.77
2019-05-02T20:42:04.584Z,19.93
2019-05-02T20:44:32.240Z,20.23
2019-05-02T20:46:59.895Z,17.90
2019-05-02T20:49:27.545Z,16.93
2019-05-02T20:51:55.197Z,16.13
2019-05-02T20:54:22.851Z,19.33
2019-05-02T20:56:51.992Z,21.13
2019-05-02T20:59:21.823Z,18.13
2019-05-02T21:01:49.488Z,18.27
2019-05-02T21:04:17.140Z,17.10
2019-05-02T21:06:52.687Z,21.00
2019-05-02T21:09:29.793Z,20.00
2019-05-02T21:12:02.006Z,19.57
2019-05-02T21:14:29.888Z,16.93
2019-05-02T21:16:57.564Z,18.30
2019-05-02T21:19:25.236Z,17.67
2019-05-02T21:21:53.043Z,17.27
2019-05-02T21:24:22.086Z,17.90
2019-05-02T21:26:49.853Z,18.87
2019-05-02T21:29:17.664Z,18.50
2019-05-02T21:31:45.331Z,19.70
2019-05-02T21:34:12.986Z,18.73
2019-05-02T21:36:42.538Z,18.63
2019-05-02T21:39:11.815Z,17.97
2019-05-02T21:41:39.599Z,18.97
2019-05-02T21:44:07.258Z,17.87
2019-05-02T21:46:35.036Z,22.57
2019-05-02T21:49:04.068Z,18.67
2019-05-02T21:51:42.592Z,18.37
2019-05-02T21:54:22.542Z,19.33
2019-05-02T21:56:53.405Z,16.33
2019-05-02T21:59:22.473Z,18.67
2019-05-02T22:01:52.202Z,18.73
2019-05-02T22:04:19.985Z,17.73
2019-05-02T22:06:47.640Z,17.90
2019-05-02T22:09:15.306Z,15.00
2019-05-02T22:11:43.175Z,19.33
2019-05-02T22:14:13.002Z,19.23
2019-05-02T22:16:42.073Z,19.47
2019-05-02T22:19:09.892Z,19.53
2019-05-02T22:21:37.661Z,26.57
2019-05-02T22:24:11.161Z,18.57
2019-05-02T22:26:34.921Z,19.30
2019-05-02T22:29:02.865Z,19.77
2019-05-02T22:31:32.200Z,16.87
2019-05-02T22:34:01.984Z,17.80
2019-05-02T22:36:29.410Z,16.50
2019-05-02T22:39:03.168Z,17.27
2019-05-02T22:41:32.599Z,16.50
2019-05-02T22:44:01.903Z,15.43
2019-05-02T22:46:51.950Z,19.60
2019-05-02T22:49:19.565Z,15.77
2019-05-02T22:51:47.231Z,16.07
2019-05-02T22:54:27.115Z,16.23
2019-05-02T22:56:44.253Z,15.63
2019-05-02T22:59:11.928Z,15.37
2019-05-02T23:01:39.660Z,14.60
2019-05-02T23:04:07.520Z,14.23
2019-05-02T23:06:35.317Z,14.90
2019-05-02T23:09:03.175Z,14.60
2019-05-02T23:11:32.921Z,17.70
2019-05-02T23:14:01.767Z,15.37
2019-05-02T23:16:29.640Z,14.57
2019-05-02T23:18:57.332Z,14.47
2019-05-02T23:21:24.993Z,15.83
2019-05-02T23:23:52.646Z,14.53
2019-05-02T23:26:25.615Z,18.57
2019-05-02T23:28:53.465Z,15.33
2019-05-02T23:31:22.584Z,16.43
2019-05-02T23:33:58.469Z,17.10
2019-05-02T23:36:26.139Z,14.90
2019-05-02T23:38:53.783Z,17.83
2019-05-02T23:41:22.096Z,18.43
2019-05-02T23:43:51.991Z,17.13
2019-05-02T23:46:19.415Z,16.63
2019-05-02T23:48:47.071Z,17.17
2019-05-02T23:51:14.738Z,18.63
2019-05-02T23:53:42.451Z,18.23
2019-05-02T23:56:10.354Z,20.27
2019-05-02T23:58:38.103Z,22.50
